Terminal Aerodrome Forecast
Issued by NWS

Home | Current Version | Previous Version | Text Only | Print | Product List | Glossary On
Versions: 1 2 3 4 5 6 7 8 9 10 11 12 13 14 15 16 17 18 19 20 21 22 23 24 25 26 27 28 29 30 31 32 33
380
FTUS43 KILX 231322 AAA
TAFCMI
TAF AMD
KCMI 231322Z 2313/2412 26011KT P6SM OVC006
     FM232000 27010KT P6SM BKN015
     FM232300 VRB05KT P6SM SCT020 BKN035
     FM240500 04007KT 6SM BR VCSH OVC020
     FM240700 06009KT 3SM RA BR OVC009=

USA.gov is the U.S. government's official web portal to all federal, state and local government web resources and services.